LFOB

Beauvais-Tillé Airport

Airport
ICAO code
LFOB
IATA Code
BVA
Summary
ICAO Region
EUR
ICAO Territory
Location

Tillé, Picardie

Serving
Beauvais
Elevation
359 ft
Coordinates
49° 27' 12" N , 2° 6' 55" E
KCC
Metar
Observation
LFOB 030230Z AUTO 04011KT 7000 BKN012 BKN019 OVC024 02/01 Q1018 TEMPO 4000 DZ BR OVC007
Station
Beauvais
Date/Time
2022-12-03 02:30:00
Wind direction
40°
Wind speed
11 kts
Lowest cloud amount
broken clouds
Temperature
2°C
Dew point
1°C
Humidity
93%
QNH
1018 hPa
Weather condition
n/a

Description

Airport serving Beauvais.

Climatology

Temperate Marine climate/Oceanic climate (Köppen climate classification Cfb). Moderately cool summer and comparatively warm winter. Prevailing south-westerly winds from the Atlantic Ocean.

Runways

Designator Length Width Surface Rops
13R/31L 0 0 UNK No/No
4/22 1105 30 ASP Yes/Yes
13/31 2430 45 ASP Yes/Yes

Airport map

Aerial View

SKYbrary Partners:

Safety knowledge contributed by: